Norfolk, Virginia
Traffic Map
Current Weather Conditions
Norfolk, Virginia
Few Clouds
Few Clouds
83°
Feels Like: 87°
Wind Chill: 83° Ceiling: Unl
Heat Index: 87° Visibility: 10mi
Dew Point: 70° Wind: 8mph
Humidity: 65% Direction: 360° (N)
Pressure: 30.02in Gusts: 0mph
Raw Report DataKORF 251651Z 36007KT 10SM FEW070 28/21 A3002 RMK AO2 SLP164 T02830211
Traffic Incident Summary
Active as of:
Severity:
Category:
InformationThere was an issue retrieving the traffic information for this location. Please try a different location or try again shortly.
Advertisements
Track Severe Weather on mobile